Time;durP1;ratioP1;P1;durP2;ratioP2;P2;SDS_P1;SDS_P2;PMS_P1;PMS_P2;Temp;Humidity;BMP_temperature;BMP_pressure;BME280_temperature;BME280_humidity;BME280_pressure;Samples;Min_cycle;Max_cycle;Signal;HPM_P1;HPM_P2
2022/08/14 00:02:24;;;;;;;4.50;3.33;;;;;;;20.27;52.97;98275.50;5001789;28;103620;-60
2022/08/14 00:04:54;;;;;;;3.20;2.93;;;;;;;20.20;53.14;98265.47;4978790;28;103000;-61
2022/08/14 00:07:23;;;;;;;2.70;2.50;;;;;;;20.46;51.75;98250.81;4997049;28;103007;-61
2022/08/14 00:09:52;;;;;;;2.80;2.60;;;;;;;20.53;51.90;98257.94;4999477;28;103518;-61
2022/08/14 00:12:44;;;;;;;4.30;3.90;;;;;;;20.45;52.75;98249.16;4993760;28;103259;-60
2022/08/14 00:15:22;;;;;;;4.00;3.60;;;;;;;20.18;54.30;98243.31;4990214;28;103002;-60
2022/08/14 00:17:51;;;;;;;4.13;3.73;;;;;;;20.05;54.48;98231.56;4995701;28;103850;-61
2022/08/14 00:20:23;;;;;;;5.07;3.70;;;;;;;20.09;53.90;98233.72;4989011;28;103059;-60
2022/08/14 00:23:05;;;;;;;4.20;3.47;;;;;;;19.63;54.48;98237.44;4996088;28;103002;-61
2022/08/14 00:25:45;;;;;;;5.40;4.72;;;;;;;19.24;55.86;98242.03;4987649;28;102677;-60
2022/08/14 00:28:27;;;;;;;5.50;4.20;;;;;;;19.34;55.82;98232.75;4989563;28;103884;-60
2022/08/14 00:30:59;;;;;;;3.70;3.40;;;;;;;19.73;54.68;98232.69;4998578;28;103245;-60
2022/08/14 00:33:29;;;;;;;4.20;3.90;;;;;;;19.71;55.17;98229.34;4991714;28;103353;-60
2022/08/14 00:36:17;;;;;;;3.73;3.43;;;;;;;19.84;54.14;98221.53;4994411;28;102696;-61
2022/08/14 00:39:06;;;;;;;4.00;3.67;;;;;;;19.78;54.65;98214.22;4979713;28;102872;-60
2022/08/14 00:41:38;;;;;;;5.25;3.70;;;;;;;19.51;55.31;98206.72;4989651;28;103290;-61
2022/08/14 00:44:09;;;;;;;6.00;3.72;;;;;;;19.04;56.75;98209.50;4998856;28;103371;-61
2022/08/14 00:46:37;;;;;;;4.78;3.58;;;;;;;19.11;56.90;98205.94;4991628;28;102707;-60
2022/08/14 00:49:06;;;;;;;3.35;2.95;;;;;;;19.42;55.62;98208.66;5001093;28;102696;-61
2022/08/14 00:51:44;;;;;;;3.45;3.15;;;;;;;19.54;55.65;98195.63;4993964;28;102581;-60
2022/08/14 00:54:15;;;;;;;3.17;2.70;;;;;;;19.66;55.33;98200.41;4992486;28;103499;-60
2022/08/14 00:56:51;;;;;;;2.75;2.55;;;;;;;19.77;54.64;98200.97;4989418;28;102610;-60
2022/08/14 00:59:24;;;;;;;3.07;2.80;;;;;;;19.84;54.93;98205.47;4979170;28;102919;-61
2022/08/14 01:01:56;;;;;;;2.90;2.70;;;;;;;19.88;55.03;98205.91;4986823;28;102833;-60
2022/08/14 01:04:27;;;;;;;3.80;3.50;;;;;;;19.77;55.44;98200.97;4997642;28;103513;-61
2022/08/14 01:07:19;;;;;;;4.37;3.97;;;;;;;18.53;59.33;98211.72;4980568;28;102923;-61
2022/08/14 01:09:50;;;;;;;3.30;3.10;;;;;;;18.85;58.80;98204.59;4976232;28;105364;-61
2022/08/14 01:12:19;;;;;;;3.50;3.20;;;;;;;19.10;58.14;98198.09;4988968;28;103969;-65
2022/08/14 01:14:57;;;;;;;4.00;3.60;;;;;;;18.84;59.15;98192.19;5000106;28;103038;-65
2022/08/14 01:21:02;;;;;;;4.00;3.53;;;;;;;18.82;58.99;98203.09;4984268;28;103129;-65
2022/08/14 01:23:10;;;;;;;4.05;3.35;;;;;;;18.43;59.68;98200.38;4995977;28;103552;-60
2022/08/14 01:25:45;;;;;;;3.20;3.00;;;;;;;18.68;58.99;98190.44;4992880;28;103179;-58
2022/08/14 01:28:15;;;;;;;3.42;3.15;;;;;;;18.83;58.42;98188.72;4981302;28;103279;-59
2022/08/14 01:31:07;;;;;;;8.65;7.38;;;;;;;18.75;58.77;98199.44;4995921;28;103885;-58
2022/08/14 01:33:39;;;;;;;8.77;7.43;;;;;;;18.38;59.69;98201.91;4995748;28;103272;-58
2022/08/14 01:36:35;;;;;;;4.40;4.00;;;;;;;17.79;61.83;98205.84;4989765;28;103429;-57
2022/08/14 01:39:06;;;;;;;4.00;3.50;;;;;;;18.12;60.64;98201.28;4987067;28;102601;-58
2022/08/14 01:41:42;;;;;;;2.83;2.63;;;;;;;18.70;58.40;98200.97;4992931;28;102689;-57
2022/08/14 01:44:14;;;;;;;3.00;2.72;;;;;;;18.88;58.00;98191.69;4990934;28;103647;-58
2022/08/14 01:47:02;;;;;;;5.60;3.22;;;;;;;18.27;60.18;98188.91;4989841;28;103207;-58
2022/08/14 01:49:32;;;;;;;3.78;3.40;;;;;;;17.43;63.81;98183.94;4996974;28;102654;-59
2022/08/14 01:52:13;;;;;;;3.50;3.20;;;;;;;17.90;61.86;98186.78;4990346;28;102762;-59
2022/08/14 01:55:02;;;;;;;2.58;2.38;;;;;;;18.58;59.05;98180.97;4989704;28;104179;-60
2022/08/14 01:57:36;;;;;;;2.60;2.40;;;;;;;18.77;58.67;98175.19;4999341;28;103760;-58
2022/08/14 02:00:25;;;;;;;3.42;3.13;;;;;;;18.72;59.63;98172.22;4996797;28;102678;-58
2022/08/14 02:02:55;;;;;;;2.88;2.58;;;;;;;18.63;58.98;98168.75;4975744;28;102961;-59
2022/08/14 02:05:30;;;;;;;2.53;2.33;;;;;;;18.79;58.41;98162.47;4997369;28;103971;-58
2022/08/14 02:08:05;;;;;;;3.38;3.08;;;;;;;18.74;58.93;98156.81;4991119;28;103271;-59
2022/08/14 02:10:39;;;;;;;2.83;2.53;;;;;;;18.68;59.36;98158.34;5001254;27;102654;-58
2022/08/14 02:13:14;;;;;;;2.90;2.70;;;;;;;18.75;58.92;98159.28;4993060;28;102994;-59
2022/08/14 02:15:44;;;;;;;4.03;3.60;;;;;;;18.39;60.17;98150.91;4988893;28;103253;-58
2022/08/14 02:18:15;;;;;;;3.30;3.03;;;;;;;18.29;61.01;98157.47;4993215;28;103105;-59
2022/08/14 02:20:47;;;;;;;2.80;2.60;;;;;;;18.50;59.67;98168.44;4999153;28;102874;-63
2022/08/14 02:23:16;;;;;;;2.70;2.50;;;;;;;18.62;59.30;98177.75;4993391;28;102745;-63
2022/08/14 02:25:58;;;;;;;3.05;2.80;;;;;;;18.57;59.34;98161.41;4978188;28;103323;-63
2022/08/14 02:28:48;;;;;;;2.30;2.20;;;;;;;18.70;58.15;98169.69;4976871;28;104183;-63
2022/08/14 02:31:31;;;;;;;2.97;2.78;;;;;;;18.64;58.99;98165.03;4993403;28;103538;-62
2022/08/14 02:34:13;;;;;;;4.35;3.85;;;;;;;18.41;60.05;98166.78;4992539;28;104191;-62
2022/08/14 02:36:58;;;;;;;4.85;3.60;;;;;;;18.05;61.76;98155.69;4990494;28;103438;-63
2022/08/14 02:39:34;;;;;;;4.68;3.38;;;;;;;17.44;63.17;98152.72;4996038;28;103232;-59
2022/08/14 02:42:06;;;;;;;5.00;3.70;;;;;;;17.34;63.90;98150.22;4991206;28;104490;-63
2022/08/14 02:44:42;;;;;;;3.20;2.90;;;;;;;17.78;62.34;98140.88;4992028;28;102961;-63
2022/08/14 02:47:17;;;;;;;3.30;3.10;;;;;;;18.06;61.25;98143.16;4988962;28;103339;-63
2022/08/14 02:49:49;;;;;;;3.75;3.45;;;;;;;17.84;61.60;98129.53;4991444;28;103249;-59
2022/08/14 02:52:24;;;;;;;3.90;3.50;;;;;;;17.84;62.31;98134.88;4990171;28;102649;-58
2022/08/14 02:55:12;;;;;;;3.70;3.30;;;;;;;18.07;61.17;98123.44;4991366;28;102800;-58
2022/08/14 02:57:50;;;;;;;3.87;3.53;;;;;;;18.00;61.10;98117.94;4998720;28;104200;-62
2022/08/14 03:00:31;;;;;;;4.60;4.20;;;;;;;17.36;64.08;98118.84;4992127;28;103382;-58
2022/08/14 03:03:01;;;;;;;4.10;3.75;;;;;;;17.05;65.47;98112.50;4985659;28;102730;-59
2022/08/14 03:05:35;;;;;;;4.30;3.80;;;;;;;17.00;65.25;98112.16;4975536;28;102815;-58
2022/08/14 03:08:10;;;;;;;3.03;2.70;;;;;;;17.52;63.24;98113.50;4991905;28;103301;-57
2022/08/14 03:10:43;;;;;;;2.70;2.50;;;;;;;17.80;61.90;98106.81;4977336;28;104409;-63
2022/08/14 03:13:18;;;;;;;2.72;2.53;;;;;;;17.94;61.39;98110.59;4991956;28;102664;-63
2022/08/14 03:15:52;;;;;;;5.40;3.97;;;;;;;17.51;63.64;98106.50;4999215;28;102933;-63
2022/08/14 03:18:24;;;;;;;3.65;3.35;;;;;;;17.58;63.51;98102.19;4997093;28;103570;-63
2022/08/14 03:21:01;;;;;;;3.50;3.20;;;;;;;17.78;62.24;98106.16;4991472;28;103327;-58
2022/08/14 03:23:34;;;;;;;3.25;3.05;;;;;;;17.88;61.59;98104.13;4992559;28;102818;-58
2022/08/14 03:26:05;;;;;;;4.07;3.67;;;;;;;17.68;62.98;98108.19;4999968;28;103941;-63
2022/08/14 03:28:37;;;;;;;3.73;3.43;;;;;;;17.29;64.43;98102.66;4998959;28;103442;-62
2022/08/14 03:31:06;;;;;;;3.75;3.45;;;;;;;17.46;63.96;98092.78;4994160;28;103393;-63
2022/08/14 03:33:36;;;;;;;3.50;3.30;;;;;;;17.58;63.14;98088.81;4981837;28;102757;-63
2022/08/14 03:36:11;;;;;;;3.33;3.05;;;;;;;17.67;62.93;98077.13;4999771;28;104145;-63
2022/08/14 03:38:59;;;;;;;4.75;3.85;;;;;;;17.57;63.20;98081.81;4991592;28;103175;-62
2022/08/14 03:41:43;;;;;;;3.70;3.40;;;;;;;17.60;62.73;98077.97;4992252;28;103480;-62
2022/08/14 03:44:12;;;;;;;4.00;3.70;;;;;;;17.29;64.29;98083.16;4992541;28;102978;-63
2022/08/14 03:47:00;;;;;;;3.88;3.50;;;;;;;17.38;64.42;98080.31;4999114;28;102728;-63
2022/08/14 03:49:30;;;;;;;3.90;3.60;;;;;;;17.46;63.63;98082.13;4991957;28;103476;-67
2022/08/14 03:52:03;;;;;;;4.70;4.00;;;;;;;17.33;64.49;98082.66;4997547;28;103279;-68
2022/08/14 03:54:45;;;;;;;6.38;4.18;;;;;;;17.30;64.30;98082.13;4977174;28;102635;-68
2022/08/14 03:57:19;;;;;;;3.67;3.38;;;;;;;17.46;63.67;98081.31;4999088;28;102743;-67
2022/08/14 03:59:54;;;;;;;3.35;3.15;;;;;;;17.56;63.17;98081.97;4997104;28;103274;-67
2022/08/14 04:02:23;;;;;;;4.65;4.25;;;;;;;17.03;65.32;98075.31;5000339;28;103207;-67
2022/08/14 04:05:05;;;;;;;5.10;4.47;;;;;;;16.19;68.96;98078.09;4995022;28;102728;-68
2022/08/14 04:07:40;;;;;;;5.28;4.78;;;;;;;15.62;71.34;98081.47;4993744;28;104120;-67
2022/08/14 04:10:28;;;;;;;3.23;3.03;;;;;;;16.67;67.53;98079.28;5000630;28;103523;-67
2022/08/14 04:13:00;;;;;;;3.92;3.63;;;;;;;17.13;65.36;98080.47;4999671;28;103259;-68
2022/08/14 04:15:32;;;;;;;4.77;4.37;;;;;;;16.48;67.72;98077.69;5003017;28;103015;-67
2022/08/14 04:18:20;;;;;;;4.53;4.13;;;;;;;16.49;68.45;98082.03;4992176;28;103985;-69
2022/08/14 04:20:48;;;;;;;3.60;3.33;;;;;;;16.83;67.12;98083.78;4999953;28;103300;-67
2022/08/14 04:23:22;;;;;;;5.00;3.83;;;;;;;17.05;65.74;98077.81;5003320;28;103429;-67
2022/08/14 04:26:01;;;;;;;5.00;4.55;;;;;;;16.69;67.05;98067.44;4982411;28;102685;-68
2022/08/14 04:28:29;;;;;;;5.28;4.40;;;;;;;16.32;69.34;98076.78;5001732;28;103947;-67
2022/08/14 04:31:20;;;;;;;5.38;4.88;;;;;;;15.68;71.37;98070.19;5000262;28;103331;-67
2022/08/14 04:34:08;;;;;;;5.30;4.40;;;;;;;16.03;70.58;98066.50;4996559;28;102955;-63
2022/08/14 04:44:59;;;;;;;3.03;2.80;;;;;;;17.43;63.72;98061.13;4985941;28;103250;-59
2022/08/14 04:50:20;;;;;;;3.25;2.97;;;;;;;17.54;64.07;98071.50;4989426;28;102749;-58
2022/08/14 04:53:04;;;;;;;4.20;3.63;;;;;;;17.54;64.53;98068.81;4996369;28;103333;-59
2022/08/14 04:55:33;;;;;;;3.70;3.40;;;;;;;17.60;64.41;98057.44;4996081;28;103209;-59
2022/08/14 04:58:03;;;;;;;2.80;2.60;;;;;;;17.76;63.76;98068.09;4986755;28;102903;-63
2022/08/14 05:00:38;;;;;;;3.10;2.90;;;;;;;17.88;63.62;98081.94;4996556;28;104171;-63
2022/08/14 05:03:09;;;;;;;3.55;3.25;;;;;;;17.95;63.53;98077.56;5001403;28;103470;-59
2022/08/14 05:05:38;;;;;;;2.90;2.70;;;;;;;18.06;62.85;98076.34;4977570;28;103261;-58
2022/08/14 05:08:10;;;;;;;3.73;3.17;;;;;;;18.16;63.02;98074.31;4994479;28;102906;-63
2022/08/14 05:11:00;;;;;;;2.78;2.58;;;;;;;18.28;62.90;98075.56;4993852;28;102733;-63
2022/08/14 05:13:29;;;;;;;3.28;2.97;;;;;;;18.32;63.42;98071.56;4990037;28;103380;-62
2022/08/14 05:16:17;;;;;;;3.28;3.08;;;;;;;18.35;62.78;98072.06;4994376;28;103125;-63
2022/08/14 05:18:48;;;;;;;3.33;3.13;;;;;;;18.49;62.30;98067.84;4999320;28;103035;-63
2022/08/14 05:21:36;;;;;;;3.15;2.95;;;;;;;18.59;62.29;98078.28;4981783;28;102778;-63
2022/08/14 05:24:24;;;;;;;3.20;3.00;;;;;;;18.70;62.05;98073.38;4993639;28;104003;-58
2022/08/14 05:26:52;;;;;;;3.55;3.13;;;;;;;18.79;62.07;98072.31;4989285;28;103341;-58
2022/08/14 05:29:20;;;;;;;3.67;3.40;;;;;;;18.85;62.12;98074.28;4994910;28;103103;-58
2022/08/14 05:31:48;;;;;;;2.92;2.72;;;;;;;18.97;61.26;98064.84;4996081;28;104204;-58
2022/08/14 05:34:29;;;;;;;2.90;2.70;;;;;;;19.07;61.42;98065.44;4994837;28;103060;-63
2022/08/14 05:36:59;;;;;;;3.53;3.30;;;;;;;19.16;61.82;98060.00;4991304;28;103291;-63
2022/08/14 05:39:30;;;;;;;3.22;3.03;;;;;;;19.20;61.69;98064.00;4986140;28;102917;-63
2022/08/14 05:41:59;;;;;;;3.65;3.35;;;;;;;19.28;61.79;98058.56;4997627;28;102954;-59
2022/08/14 05:44:36;;;;;;;2.97;2.78;;;;;;;19.42;62.17;98057.81;4991478;28;104008;-58
2022/08/14 05:47:05;;;;;;;5.30;4.35;;;;;;;18.90;62.84;98058.53;4994953;28;103208;-62
2022/08/14 05:49:35;;;;;;;4.55;4.15;;;;;;;18.98;63.47;98050.44;4984036;28;102914;-62
2022/08/14 05:52:05;;;;;;;4.70;4.20;;;;;;;19.07;63.81;98053.88;4991161;28;102830;-58
2022/08/14 05:54:36;;;;;;;4.53;4.13;;;;;;;19.00;64.73;98044.91;4989542;28;103436;-58
2022/08/14 05:57:04;;;;;;;4.90;4.32;;;;;;;18.94;65.95;98053.66;4993077;28;103214;-59
2022/08/14 05:59:33;;;;;;;4.85;4.30;;;;;;;18.67;66.73;98055.00;4991305;28;102733;-58
2022/08/14 06:02:07;;;;;;;4.90;4.50;;;;;;;18.99;66.07;98062.81;4993462;28;106188;-58
2022/08/14 06:04:38;;;;;;;4.53;3.80;;;;;;;19.34;63.98;98064.03;4990288;28;103970;-58
2022/08/14 06:07:07;;;;;;;4.25;3.90;;;;;;;19.73;63.43;98057.66;4992954;28;103273;-58
2022/08/14 06:09:36;;;;;;;6.72;4.22;;;;;;;19.65;62.72;98053.19;4993955;28;102895;-57
2022/08/14 06:12:08;;;;;;;3.80;3.50;;;;;;;19.76;63.75;98051.94;4978064;28;104387;-62
2022/08/14 06:14:36;;;;;;;3.10;2.90;;;;;;;20.02;62.40;98054.97;4996425;28;104189;-58
2022/08/14 06:17:06;;;;;;;3.85;3.45;;;;;;;20.17;62.38;98043.25;4977073;28;104950;-59
2022/08/14 06:19:33;;;;;;;3.10;2.90;;;;;;;20.39;61.43;98048.69;4975725;28;102855;-63
2022/08/14 06:22:03;;;;;;;3.20;2.90;;;;;;;20.48;59.61;98039.50;4990192;28;102738;-59
2022/08/14 06:24:31;;;;;;;3.20;2.95;;;;;;;20.55;59.73;98033.19;4995334;28;103727;-58
2022/08/14 06:27:01;;;;;;;2.80;2.60;;;;;;;20.75;58.44;98036.09;4982177;28;104108;-59
2022/08/14 06:29:33;;;;;;;3.40;3.10;;;;;;;20.90;57.64;98039.56;4998192;28;102614;-60
2022/08/14 06:32:02;;;;;;;4.38;3.85;;;;;;;20.69;57.63;98037.69;4994365;28;102804;-59
2022/08/14 06:34:50;;;;;;;3.30;3.00;;;;;;;21.05;56.83;98036.81;4994029;28;103437;-60
2022/08/14 06:37:41;;;;;;;2.97;2.78;;;;;;;21.12;55.63;98027.81;4997145;28;103295;-60
2022/08/14 06:40:11;;;;;;;4.67;3.57;;;;;;;21.03;55.25;98023.56;4984657;28;103096;-60
2022/08/14 06:42:56;;;;;;;4.00;3.00;;;;;;;21.29;53.95;98021.16;4997113;28;102734;-60
2022/08/14 06:45:30;;;;;;;3.47;3.08;;;;;;;21.38;53.92;98017.31;4997172;28;104442;-56
2022/08/14 06:48:00;;;;;;;3.10;2.90;;;;;;;21.76;53.08;98008.84;4975334;28;103438;-61
2022/08/14 06:50:30;;;;;;;2.90;2.70;;;;;;;21.82;53.23;97997.31;4996598;28;102986;-62
2022/08/14 06:53:01;;;;;;;3.28;3.00;;;;;;;21.86;53.02;97998.59;5000426;28;102716;-61
2022/08/14 06:55:29;;;;;;;2.80;2.60;;;;;;;22.21;52.99;97991.31;4980244;28;103289;-61
2022/08/14 06:58:00;;;;;;;3.45;3.15;;;;;;;22.21;52.66;97997.53;4996382;28;103234;-61
2022/08/14 07:00:31;;;;;;;3.47;2.80;;;;;;;22.36;52.34;97987.47;5010875;28;102725;-61
2022/08/14 07:05:48;;;;;;;2.70;2.45;;;;;;;22.77;51.35;97991.91;5004296;28;104341;-60
2022/08/14 07:08:28;;;;;;;3.22;2.83;;;;;;;22.50;51.93;97981.06;4998444;28;102681;-62
2022/08/14 07:11:02;;;;;;;4.10;3.17;;;;;;;22.86;51.16;97986.16;4995060;28;102602;-62
2022/08/14 07:13:31;;;;;;;2.72;2.53;;;;;;;23.13;50.23;97978.09;4999828;28;102720;-62
2022/08/14 07:15:59;;;;;;;2.97;2.50;;;;;;;23.26;50.29;97981.59;5000711;28;103775;-62
2022/08/14 07:18:34;;;;;;;3.95;2.80;;;;;;;23.42;49.82;97969.59;4984832;28;103081;-62
2022/08/14 07:21:05;;;;;;;2.93;2.60;;;;;;;23.63;49.56;97970.16;4998357;28;102852;-63
2022/08/14 07:23:36;;;;;;;4.10;2.75;;;;;;;23.74;49.02;97970.56;4998313;28;103082;-63
2022/08/14 07:26:07;;;;;;;2.65;2.45;;;;;;;23.97;48.36;97979.81;4998446;28;104017;-63
2022/08/14 07:28:39;;;;;;;3.60;2.63;;;;;;;23.87;48.33;97979.44;4986108;28;103222;-63
2022/08/14 07:31:12;;;;;;;2.67;2.47;;;;;;;24.29;46.80;97983.47;4983366;28;103095;-63
2022/08/14 07:33:45;;;;;;;2.67;2.47;;;;;;;24.16;46.73;97978.97;4998563;28;103999;-63
2022/08/14 07:36:19;;;;;;;3.40;2.40;;;;;;;24.28;46.29;97976.41;4977712;28;103837;-63
2022/08/14 07:38:59;;;;;;;2.90;2.60;;;;;;;24.74;45.70;97979.69;5004431;28;103215;-63
2022/08/14 07:41:28;;;;;;;3.67;2.60;;;;;;;24.84;44.38;97986.53;5006656;28;103652;-63
2022/08/14 07:44:01;;;;;;;2.80;2.30;;;;;;;25.05;44.30;97996.97;4994986;28;102649;-63
2022/08/14 07:46:49;;;;;;;3.27;2.50;;;;;;;25.52;43.58;97988.28;4994533;28;103408;-63
2022/08/14 07:49:17;;;;;;;2.38;2.17;;;;;;;25.72;42.98;97991.63;5003698;28;102689;-63
2022/08/14 07:51:45;;;;;;;2.53;2.30;;;;;;;25.60;43.60;97987.97;4983853;28;103507;-63
2022/08/14 07:54:19;;;;;;;2.70;2.50;;;;;;;26.17;42.71;97988.66;5005461;28;104086;-63
2022/08/14 07:56:57;;;;;;;3.77;2.30;;;;;;;26.49;41.87;97987.41;5002617;28;102927;-63
2022/08/14 07:59:27;;;;;;;3.38;2.20;;;;;;;27.01;41.20;97992.09;5003287;28;103306;-63
2022/08/14 08:02:14;;;;;;;2.20;2.00;;;;;;;26.50;41.29;97989.03;4997875;28;102972;-64
2022/08/14 08:04:49;;;;;;;2.40;2.20;;;;;;;27.00;40.96;97987.72;4985537;28;104097;-64
2022/08/14 08:07:22;;;;;;;3.67;2.38;;;;;;;27.24;41.35;97985.06;4979311;28;103414;-64
2022/08/14 08:09:56;;;;;;;2.38;2.10;;;;;;;27.84;40.08;97986.53;5002078;28;103201;-64
2022/08/14 08:12:26;;;;;;;2.00;1.80;;;;;;;28.38;38.89;97979.81;4985643;28;102822;-64
2022/08/14 08:15:01;;;;;;;2.85;2.38;;;;;;;28.71;38.80;97977.25;4996491;28;102975;-64
2022/08/14 08:17:38;;;;;;;2.53;2.33;;;;;;;28.54;38.59;97970.09;4998662;28;103238;-64
2022/08/14 08:20:27;;;;;;;3.55;2.50;;;;;;;27.73;38.67;97968.38;4986288;28;104434;-65
2022/08/14 08:22:58;;;;;;;4.47;2.30;;;;;;;28.97;36.88;97956.75;4987334;28;102740;-65
2022/08/14 08:25:36;;;;;;;2.70;2.50;;;;;;;29.32;38.21;97962.00;4996320;28;103002;-64
2022/08/14 08:28:09;;;;;;;2.10;2.00;;;;;;;29.82;36.70;97956.53;4994027;28;103419;-65
2022/08/14 08:30:50;;;;;;;2.92;2.10;;;;;;;29.56;36.33;97960.75;4990436;28;103301;-67
2022/08/14 08:33:20;;;;;;;2.40;2.20;;;;;;;29.80;36.20;97959.50;5001016;28;102637;-63
2022/08/14 08:35:50;;;;;;;2.55;2.15;;;;;;;30.71;35.32;97940.75;4978756;28;102797;-63
2022/08/14 08:38:19;;;;;;;2.55;2.35;;;;;;;31.18;34.04;97957.28;4995594;28;103891;-62
2022/08/14 08:41:09;;;;;;;2.63;2.10;;;;;;;30.96;33.95;97949.19;4990414;28;103340;-63
2022/08/14 08:43:39;;;;;;;2.72;2.45;;;;;;;31.30;34.28;97945.09;4995178;28;102875;-63
2022/08/14 08:46:20;;;;;;;2.15;1.88;;;;;;;31.28;32.50;97950.00;4993692;28;103919;-64
2022/08/14 08:48:51;;;;;;;2.20;2.00;;;;;;;31.22;32.56;97951.03;4985217;28;103335;-63
2022/08/14 08:51:22;;;;;;;3.60;2.35;;;;;;;30.72;32.87;97939.66;4989599;28;103086;-64
2022/08/14 08:53:59;;;;;;;2.97;1.90;;;;;;;31.93;32.50;97943.34;4987744;28;102760;-63
2022/08/14 08:56:44;;;;;;;2.88;1.90;;;;;;;32.31;30.86;97936.72;4998026;28;102743;-63
2022/08/14 08:59:18;;;;;;;2.93;2.10;;;;;;;32.28;31.00;97940.81;4996193;28;103245;-69
2022/08/14 09:01:50;;;;;;;2.65;2.20;;;;;;;32.78;32.38;97931.13;4997815;27;103191;-68
2022/08/14 09:04:23;;;;;;;2.50;2.10;;;;;;;32.45;31.87;97933.19;4977860;28;103339;-69
2022/08/14 09:06:51;;;;;;;2.30;2.08;;;;;;;32.82;30.76;97918.53;4997894;28;102613;-69
2022/08/14 09:09:29;;;;;;;2.40;2.20;;;;;;;32.91;29.61;97914.19;4996220;28;103336;-69
2022/08/14 09:12:06;;;;;;;2.40;2.20;;;;;;;33.13;30.17;97912.03;5001541;28;103203;-69
2022/08/14 09:14:40;;;;;;;2.73;2.10;;;;;;;31.91;31.49;97910.03;5000894;28;102701;-69
2022/08/14 09:17:09;;;;;;;2.45;2.08;;;;;;;33.21;30.59;97911.47;4998651;28;102928;-69
2022/08/14 09:19:37;;;;;;;2.40;2.20;;;;;;;33.68;30.46;97908.44;5005592;27;103296;-69
2022/08/14 09:22:09;;;;;;;2.28;2.10;;;;;;;33.12;30.68;97904.94;4995526;28;103326;-70
2022/08/14 09:24:57;;;;;;;3.10;2.28;;;;;;;33.37;30.03;97909.56;4989023;28;102906;-70
2022/08/14 09:27:27;;;;;;;2.70;2.20;;;;;;;34.42;28.92;97897.44;4993707;28;102951;-70
2022/08/14 09:29:56;;;;;;;2.92;2.20;;;;;;;34.45;30.33;97896.88;5001321;28;103275;-70
2022/08/14 09:32:43;;;;;;;2.53;2.10;;;;;;;34.09;29.17;97904.47;4991891;28;103244;-70
2022/08/14 09:35:47;;;;;;;3.35;2.47;;;;;;;34.10;28.88;97908.03;4985488;28;102805;-70
2022/08/14 09:38:32;;;;;;;2.40;2.20;;;;;;;33.38;29.21;97906.53;4999358;28;103877;-70
2022/08/14 09:41:10;;;;;;;3.40;2.30;;;;;;;33.74;28.63;97908.13;4996119;28;103387;-70
2022/08/14 09:43:47;;;;;;;2.47;2.28;;;;;;;34.82;28.43;97910.13;4991199;28;103209;-69
2022/08/14 09:46:17;;;;;;;3.90;2.40;;;;;;;34.50;28.20;97916.03;4993052;28;102784;-70
2022/08/14 09:48:58;;;;;;;2.53;2.33;;;;;;;34.23;29.52;97907.44;4981364;28;102791;-70
2022/08/14 09:51:30;;;;;;;2.50;2.30;;;;;;;33.48;28.21;97916.66;4997614;28;103321;-70
2022/08/14 09:54:12;;;;;;;4.27;2.57;;;;;;;33.83;28.54;97902.88;4998191;28;103204;-70
2022/08/14 09:56:51;;;;;;;2.40;2.20;;;;;;;33.76;28.14;97895.00;4995688;28;102757;-70
2022/08/14 09:59:28;;;;;;;3.20;3.00;;;;;;;33.61;29.83;97892.28;5014411;27;103329;-71
2022/08/14 10:02:05;;;;;;;2.70;2.50;;;;;;;33.44;30.70;97891.75;4987963;28;103322;-71
2022/08/14 10:04:36;;;;;;;2.92;2.63;;;;;;;33.47;29.90;97880.25;4995694;28;103197;-70
2022/08/14 10:07:13;;;;;;;3.50;2.60;;;;;;;32.74;30.16;97886.25;4991647;28;103552;-71
2022/08/14 10:09:49;;;;;;;3.00;2.75;;;;;;;33.22;29.85;97883.00;4977286;28;104238;-71
2022/08/14 10:12:43;;;;;;;5.00;2.80;;;;;;;33.87;28.76;97868.38;4998977;27;103383;-71
2022/08/14 10:15:19;;;;;;;2.80;2.60;;;;;;;33.73;28.45;97868.16;4998658;28;103731;-71
2022/08/14 10:17:48;;;;;;;3.25;2.95;;;;;;;33.73;28.55;97859.94;4996552;28;102847;-71
2022/08/14 10:20:32;;;;;;;2.88;2.67;;;;;;;33.31;28.91;97858.66;4986299;28;102938;-70
2022/08/14 10:23:13;;;;;;;3.30;2.70;;;;;;;33.74;28.84;97847.06;4993113;28;103203;-71
2022/08/14 10:25:49;;;;;;;3.22;2.72;;;;;;;33.74;28.35;97836.91;4982150;28;103299;-71
2022/08/14 10:28:18;;;;;;;3.13;2.50;;;;;;;33.52;27.48;97830.94;4982341;28;103684;-71
2022/08/14 10:31:17;;;;;;;2.70;2.50;;;;;;;33.71;27.65;97820.25;4988843;28;102872;-72
2022/08/14 10:34:04;;;;;;;2.70;2.50;;;;;;;33.52;27.81;97808.22;4975710;28;104337;-70
2022/08/14 10:36:42;;;;;;;3.42;2.80;;;;;;;33.63;28.43;97805.19;4993905;28;103435;-70
2022/08/14 10:39:17;;;;;;;3.30;2.80;;;;;;;34.24;27.99;97813.16;4993599;28;102999;-71
2022/08/14 10:41:47;;;;;;;3.28;2.97;;;;;;;34.16;28.10;97816.50;4996441;28;102632;-72
2022/08/14 10:44:24;;;;;;;3.33;3.03;;;;;;;33.83;27.34;97811.72;4969492;28;107625;-71
2022/08/14 10:47:01;;;;;;;5.07;3.17;;;;;;;33.52;27.65;97805.47;4996884;28;103288;-69
2022/08/14 10:49:57;;;;;;;3.20;2.90;;;;;;;33.79;27.81;97803.22;4994530;28;102617;-72
2022/08/14 10:52:31;;;;;;;3.90;2.88;;;;;;;34.30;27.10;97790.09;4989508;28;103245;-72
2022/08/14 10:55:12;;;;;;;3.10;2.90;;;;;;;34.13;28.52;97781.44;4967597;28;103804;-71
2022/08/14 10:57:50;;;;;;;3.37;2.70;;;;;;;34.11;26.83;97787.19;4994440;28;103086;-72
2022/08/14 11:00:20;;;;;;;2.80;2.60;;;;;;;33.52;27.25;97776.19;4995092;28;102679;-71
2022/08/14 11:03:06;;;;;;;3.50;2.80;;;;;;;33.29;27.74;97779.56;4988033;28;104104;-70
2022/08/14 11:05:42;;;;;;;3.10;2.80;;;;;;;32.73;27.76;97786.22;4983741;28;103983;-72
2022/08/14 11:08:14;;;;;;;3.10;2.90;;;;;;;33.65;27.98;97781.13;4994912;28;103358;-71
2022/08/14 11:10:45;;;;;;;3.40;3.10;;;;;;;33.02;27.52;97789.97;4982187;28;102929;-71
2022/08/14 11:13:20;;;;;;;3.50;3.20;;;;;;;33.47;27.65;97776.22;4983679;28;102808;-71
2022/08/14 11:15:54;;;;;;;2.87;2.53;;;;;;;33.63;27.51;97780.56;4985339;28;103908;-73
2022/08/14 11:18:25;;;;;;;3.80;2.87;;;;;;;33.78;27.16;97775.00;4968584;28;103215;-72
2022/08/14 11:21:07;;;;;;;3.77;3.23;;;;;;;34.54;26.59;97774.53;4977560;28;102723;-69
2022/08/14 11:23:38;;;;;;;3.95;3.40;;;;;;;34.62;26.52;97773.97;4975982;28;102835;-70
2022/08/14 11:26:11;;;;;;;3.10;2.83;;;;;;;34.99;26.50;97772.50;4988478;28;103922;-71
2022/08/14 11:28:42;;;;;;;2.90;2.70;;;;;;;35.38;26.48;97767.72;4975392;28;103471;-71
2022/08/14 11:31:19;;;;;;;3.80;3.00;;;;;;;34.79;26.35;97784.50;4989094;28;103085;-73
2022/08/14 11:33:56;;;;;;;3.20;2.90;;;;;;;34.54;26.10;97769.06;4991233;28;102812;-73
2022/08/14 11:36:28;;;;;;;3.22;2.92;;;;;;;35.03;25.81;97776.34;4989191;28;104007;-73
2022/08/14 11:39:20;;;;;;;3.40;3.00;;;;;;;34.98;26.00;97774.44;4999278;28;103021;-71
2022/08/14 11:42:02;;;;;;;3.08;2.83;;;;;;;35.38;25.86;97778.72;4990415;28;102956;-72
2022/08/14 11:44:51;;;;;;;3.47;3.05;;;;;;;34.27;26.64;97782.44;4992426;28;102744;-72
2022/08/14 11:47:23;;;;;;;2.90;2.70;;;;;;;34.98;26.13;97773.66;4990480;28;103442;-73
2022/08/14 11:49:53;;;;;;;2.88;2.67;;;;;;;34.20;27.16;97780.00;4983260;28;103372;-73
2022/08/14 11:52:21;;;;;;;3.53;2.90;;;;;;;34.48;26.41;97759.22;4977902;28;102831;-72
2022/08/14 11:54:57;;;;;;;3.20;2.90;;;;;;;34.61;26.39;97768.78;4996942;28;103361;-72
2022/08/14 11:57:26;;;;;;;3.33;3.00;;;;;;;34.36;26.25;97765.06;4986752;28;102902;-73
2022/08/14 12:00:01;;;;;;;3.07;2.87;;;;;;;33.90;26.88;97757.44;4999801;28;103227;-73
2022/08/14 12:02:30;;;;;;;4.87;3.00;;;;;;;34.10;26.86;97751.84;4987452;28;102849;-71
2022/08/14 12:05:31;;;;;;;2.67;2.47;;;;;;;35.86;25.17;97735.56;4996532;28;102815;-72
2022/08/14 12:08:06;;;;;;;3.20;3.00;;;;;;;35.54;25.41;97733.47;4995249;28;103391;-72
2022/08/14 12:10:40;;;;;;;2.90;2.70;;;;;;;35.82;25.28;97729.81;5002563;28;103233;-73
2022/08/14 12:13:15;;;;;;;2.93;2.70;;;;;;;36.30;24.52;97724.19;4999231;28;102781;-73
2022/08/14 12:15:48;;;;;;;3.20;2.97;;;;;;;35.21;25.51;97718.78;5001842;28;104538;-72
2022/08/14 12:18:29;;;;;;;2.92;2.72;;;;;;;35.58;24.97;97718.09;4978718;28;103466;-72
2022/08/14 12:20:59;;;;;;;3.22;2.90;;;;;;;34.95;25.13;97720.97;4995466;28;103201;-71